Airfield :
LOGIN :

Register | Disclaimer

   EN    FR    IT 

 










Legend :    VFR   Marginal VFR   IFR   Intensive IFR   Very Intensive IFR
Visi :
Ceiling :
>= 8 km
>= 3000ft
5 to 8 km
1000 to 3000 ft
1500m to 5 km
500 to 1000 ft
800 to 1500m
200 to 500 ft
< 800m
< 200 ft
Symbols :   Thunderstorms  Fog  Heavy snow  Heavy precipitations  Wind > 20 kt
SIGMETs :     Misc.  Thunderstorms  Icing  Turbulence  Mountain Waves  Volcanic Ashes






- Airport Elevation : 202 ft
- IATA code : LGW


EGKK - London Gatwick

CURRENT METAR :
  • 250420Z 24004KT 200V260 9999 FEW042 13/10 Q1017

EXPIRED METARs :
  • 250350Z 24005KT CAVOK 14/10 Q1017
  • 250320Z 23004KT CAVOK 14/10 Q1017
  • 250250Z 22004KT 190V260 9999 -RA FEW047 14/10 Q1018
  • 250220Z 24005KT 9999 -RA NSC 15/11 Q1018
  • 250150Z 23006KT 9999 FEW047 16/12 Q1018

TAF TAF EGKK
Valid from the 25 at 00:00 until the 26 at 06:00 UTC


242255Z 2500/2606 23006KT 9999 SCT030
PROB30
TEMPO 2500/2504 7000 -SHRA
TEMPO 2504/2510 6000 RA BKN010
PROB30
TEMPO 2504/2509 4000 RADZ BKN006
TEMPO 2510/2512 BKN012
PROB30
TEMPO 2510/2515 7000 SHRA
PROB30 2603/2606 6000



MET'MAP, your aeronautical weather chart ! - Copyright ORBIFLY December 2007 - Disclaimer

ORBIFLY MET'MAP TEAM :

Programming & Development : Alexandra Zaïnal
Concept & original design : Baudouin d'Aumeries
Assistance for programming : Marc-Olivier Méhu
Technical & hardware support : Manuel Goepfert

Contact : metmap@orbifly.com




SOURCES & CREDITS :

   NOAA